createdAt,value
2023-02-27T00:04:54.519Z,0.92
2023-02-27T00:10:16.945Z,0.91
2023-02-27T00:15:40.934Z,1.08
2023-02-27T00:21:03.103Z,0.86
2023-02-27T00:26:24.951Z,0.74
2023-02-27T00:31:46.765Z,0.95
2023-02-27T00:37:08.615Z,0.97
2023-02-27T00:42:31.157Z,0.92
2023-02-27T00:47:52.867Z,0.88
2023-02-27T00:53:14.572Z,0.67
2023-02-27T00:58:36.286Z,0.80
2023-02-27T01:03:57.986Z,0.61
2023-02-27T01:09:19.819Z,0.74
2023-02-27T01:14:43.743Z,0.83
2023-02-27T01:20:07.076Z,0.53
2023-02-27T01:25:28.789Z,0.60
2023-02-27T01:30:50.561Z,0.91
2023-02-27T01:36:12.312Z,0.72
2023-02-27T01:41:34.139Z,0.73
2023-02-27T01:46:56.287Z,0.45
2023-02-27T01:52:17.989Z,0.49
2023-02-27T01:57:43.106Z,0.50
2023-02-27T02:03:10.021Z,0.16
2023-02-27T02:08:36.676Z,0.41
2023-02-27T02:14:01.288Z,0.43
2023-02-27T02:20:00.633Z,0.30
2023-02-27T02:25:31.398Z,0.23
2023-02-27T02:31:11.848Z,0.16
2023-02-27T02:37:13.447Z,0.36
2023-02-27T02:42:54.635Z,0.59
2023-02-27T02:48:19.158Z,0.45
2023-02-27T02:54:04.771Z,0.40
2023-02-27T02:59:39.903Z,0.28
2023-02-27T03:05:08.294Z,0.38
2023-02-27T03:10:44.608Z,0.08
2023-02-27T03:16:14.965Z,0.26
2023-02-27T03:21:42.824Z,0.40
2023-02-27T03:27:06.553Z,0.08
2023-02-27T03:32:38.094Z,0.22
2023-02-27T03:38:35.267Z,0.39
2023-02-27T03:44:15.455Z,0.33
2023-02-27T03:49:37.168Z,0.32
2023-02-27T03:55:09.955Z,-0.02
2023-02-27T04:00:31.888Z,0.25
2023-02-27T04:05:53.786Z,0.28
2023-02-27T04:11:40.795Z,0.20
2023-02-27T04:17:24.444Z,0.22
2023-02-27T04:23:10.354Z,0.26
2023-02-27T04:28:44.950Z,0.27
2023-02-27T04:34:21.831Z,-0.11
2023-02-27T04:39:53.330Z,-0.23
2023-02-27T04:45:20.612Z,-0.14
2023-02-27T04:50:50.119Z,-0.21
2023-02-27T04:56:23.351Z,-0.37
2023-02-27T05:01:57.510Z,-0.22
2023-02-27T05:07:29.554Z,-0.12
2023-02-27T05:12:59.879Z,-0.15
2023-02-27T05:18:23.308Z,-0.12
2023-02-27T05:24:11.159Z,-0.41
2023-02-27T05:29:48.657Z,-0.27
2023-02-27T05:35:27.432Z,-0.09
2023-02-27T05:40:58.289Z,0.14
2023-02-27T05:46:24.654Z,0.10
2023-02-27T05:51:50.157Z,0.04
2023-02-27T05:57:17.951Z,-0.13
2023-02-27T06:02:41.064Z,0.06
2023-02-27T06:08:03.066Z,0.16
2023-02-27T06:13:25.997Z,0.05
2023-02-27T06:18:47.783Z,0.04
2023-02-27T06:24:09.548Z,0.05
2023-02-27T06:29:31.331Z,0.17
2023-02-27T06:34:53.567Z,0.25
2023-02-27T06:40:15.724Z,0.29
2023-02-27T06:45:37.501Z,0.13
2023-02-27T06:50:59.473Z,0.18
2023-02-27T06:56:21.164Z,0.18
2023-02-27T07:01:43.076Z,0.22
2023-02-27T07:07:33.347Z,0.21
2023-02-27T07:12:46.943Z,-0.07
2023-02-27T07:18:08.639Z,0.34
2023-02-27T07:23:30.384Z,0.47
2023-02-27T07:28:52.052Z,0.42
2023-02-27T07:34:15.567Z,0.39
2023-02-27T07:39:37.272Z,0.31
2023-02-27T07:44:59.169Z,0.20
2023-02-27T07:50:20.918Z,0.31
2023-02-27T07:55:42.663Z,0.42
2023-02-27T08:01:04.503Z,0.45
2023-02-27T08:06:26.388Z,0.49
2023-02-27T08:11:49.266Z,0.76
2023-02-27T08:17:11.219Z,0.57
2023-02-27T08:22:33.194Z,0.84
2023-02-27T08:27:54.985Z,1.06
2023-02-27T08:33:17.140Z,1.11
2023-02-27T08:38:38.872Z,1.07
2023-02-27T08:44:00.859Z,1.15
2023-02-27T08:49:25.042Z,1.21
2023-02-27T08:54:46.806Z,1.43
2023-02-27T09:00:10.727Z,1.48
2023-02-27T09:05:35.223Z,1.48
2023-02-27T09:10:57.900Z,1.51
2023-02-27T09:16:20.799Z,1.67
2023-02-27T09:21:42.711Z,1.74
2023-02-27T09:27:04.500Z,1.94
2023-02-27T09:32:27.166Z,2.07
2023-02-27T09:37:52.282Z,2.15
2023-02-27T09:43:18.705Z,2.31
2023-02-27T09:48:50.449Z,2.37
2023-02-27T09:54:12.703Z,2.49
2023-02-27T09:59:36.216Z,2.61
2023-02-27T10:05:12.977Z,2.69
2023-02-27T10:10:49.950Z,2.83
2023-02-27T10:16:15.341Z,3.01
2023-02-27T10:21:43.869Z,3.26
2023-02-27T10:27:13.703Z,3.37
2023-02-27T10:32:36.072Z,3.51
2023-02-27T10:38:05.878Z,3.59
2023-02-27T10:43:27.650Z,3.62
2023-02-27T10:48:49.940Z,3.70
2023-02-27T10:54:23.882Z,3.87
2023-02-27T10:59:53.167Z,3.98
2023-02-27T11:05:28.033Z,4.12
2023-02-27T11:11:00.383Z,4.26
2023-02-27T11:16:22.243Z,4.54
2023-02-27T11:22:14.767Z,4.69
2023-02-27T11:27:36.530Z,5.02
2023-02-27T11:33:00.771Z,5.11
2023-02-27T11:38:24.887Z,5.13
2023-02-27T11:43:52.236Z,5.17
2023-02-27T11:49:32.157Z,5.07
2023-02-27T11:54:57.821Z,4.95
2023-02-27T12:00:32.985Z,4.99
2023-02-27T12:05:59.774Z,4.99
2023-02-27T12:11:29.791Z,4.84
2023-02-27T12:17:03.127Z,4.61
2023-02-27T12:22:30.679Z,4.65
2023-02-27T12:28:00.790Z,4.50
2023-02-27T12:33:38.347Z,4.40
2023-02-27T12:39:00.176Z,4.40
2023-02-27T12:44:50.341Z,4.67
2023-02-27T12:50:41.208Z,5.19
2023-02-27T12:56:21.955Z,5.46
2023-02-27T13:01:51.088Z,5.12
2023-02-27T13:07:28.549Z,5.02
2023-02-27T13:12:59.314Z,4.90
2023-02-27T13:18:45.258Z,5.15
2023-02-27T13:24:26.249Z,5.36
2023-02-27T13:30:19.197Z,5.40
2023-02-27T13:35:59.324Z,5.12
2023-02-27T13:41:20.988Z,4.72
2023-02-27T13:46:42.751Z,4.89
2023-02-27T13:52:04.876Z,5.11
2023-02-27T13:57:35.359Z,5.21
2023-02-27T14:03:01.770Z,5.50
2023-02-27T14:08:27.209Z,5.42
2023-02-27T14:13:49.670Z,5.17
2023-02-27T14:19:17.902Z,4.92
2023-02-27T14:25:01.515Z,4.72
2023-02-27T14:30:42.904Z,4.80
2023-02-27T14:36:08.558Z,4.89
2023-02-27T14:42:15.867Z,4.74
2023-02-27T14:47:39.263Z,4.57
2023-02-27T14:53:01.576Z,4.50
2023-02-27T14:58:25.133Z,4.51
2023-02-27T15:03:49.563Z,4.58
2023-02-27T15:09:47.842Z,4.60
2023-02-27T15:15:16.364Z,4.31
2023-02-27T15:20:38.244Z,4.19
2023-02-27T15:26:00.289Z,4.19
2023-02-27T15:31:26.866Z,4.27
2023-02-27T15:36:53.275Z,4.18
2023-02-27T15:42:15.256Z,4.18
2023-02-27T15:47:37.320Z,4.10
2023-02-27T15:53:10.934Z,4.06
2023-02-27T15:58:38.969Z,3.95
2023-02-27T16:04:05.227Z,3.81
2023-02-27T16:09:35.707Z,3.91
2023-02-27T16:15:34.326Z,3.87
2023-02-27T16:21:09.314Z,3.82
2023-02-27T16:26:33.021Z,3.66
2023-02-27T16:31:56.558Z,3.82
2023-02-27T16:37:33.704Z,3.67
2023-02-27T16:42:56.298Z,3.83
2023-02-27T16:48:17.981Z,3.88
2023-02-27T16:53:39.682Z,3.79
2023-02-27T16:59:02.235Z,3.77
2023-02-27T17:04:26.354Z,3.68
2023-02-27T17:09:48.171Z,3.80
2023-02-27T17:15:10.480Z,3.69
2023-02-27T17:20:32.235Z,3.48
2023-02-27T17:25:54.535Z,3.33
2023-02-27T17:31:16.304Z,3.45
2023-02-27T17:36:38.538Z,3.59
2023-02-27T17:42:00.230Z,3.47
2023-02-27T17:47:22.084Z,3.32
2023-02-27T17:52:43.910Z,3.31
2023-02-27T17:58:05.567Z,3.33
2023-02-27T18:03:31.024Z,3.42
2023-02-27T18:08:52.755Z,3.37
2023-02-27T18:14:14.837Z,3.31
2023-02-27T18:19:42.744Z,3.29
2023-02-27T18:25:06.307Z,3.14
2023-02-27T18:30:33.536Z,3.20
2023-02-27T18:35:55.238Z,3.14
2023-02-27T18:41:16.982Z,3.14
2023-02-27T18:46:39.177Z,3.06
2023-02-27T18:52:01.354Z,3.08
2023-02-27T18:57:23.211Z,2.99
2023-02-27T19:02:45.585Z,2.94
2023-02-27T19:08:07.366Z,2.91
2023-02-27T19:13:29.120Z,2.78
2023-02-27T19:18:51.029Z,2.89
2023-02-27T19:24:14.055Z,2.90
2023-02-27T19:29:35.800Z,2.80
2023-02-27T19:34:57.567Z,2.65
2023-02-27T19:40:21.390Z,2.76
2023-02-27T19:45:43.131Z,2.76
2023-02-27T19:51:07.642Z,2.72
2023-02-27T19:56:30.141Z,2.67
2023-02-27T20:01:52.937Z,2.53
2023-02-27T20:07:14.796Z,2.58
2023-02-27T20:12:36.639Z,2.45
2023-02-27T20:17:58.343Z,2.46
2023-02-27T20:23:20.795Z,2.47
2023-02-27T20:28:42.799Z,2.32
2023-02-27T20:34:06.428Z,2.14
2023-02-27T20:39:28.923Z,2.34
2023-02-27T20:44:50.788Z,2.32
2023-02-27T20:50:12.595Z,2.35
2023-02-27T20:55:34.376Z,2.41
2023-02-27T21:00:56.301Z,2.21
2023-02-27T21:06:19.383Z,2.21
2023-02-27T21:11:41.160Z,2.27
2023-02-27T21:17:04.568Z,2.36
2023-02-27T21:22:26.354Z,2.16
2023-02-27T21:27:48.577Z,2.23
2023-02-27T21:33:10.349Z,2.07
2023-02-27T21:38:32.140Z,2.41
2023-02-27T21:44:01.052Z,2.36
2023-02-27T21:49:26.471Z,2.34
2023-02-27T21:54:48.297Z,2.26
2023-02-27T22:00:11.440Z,2.43
2023-02-27T22:05:33.228Z,2.14
2023-02-27T22:10:59.039Z,2.22
2023-02-27T22:16:21.253Z,2.24
2023-02-27T22:21:43.044Z,2.13
2023-02-27T22:27:04.809Z,2.34
2023-02-27T22:32:26.568Z,2.24
2023-02-27T22:37:48.548Z,2.18
2023-02-27T22:43:11.154Z,2.09
2023-02-27T22:48:33.817Z,2.02
2023-02-27T22:53:57.563Z,1.72
2023-02-27T22:59:19.821Z,1.84
2023-02-27T23:04:41.547Z,1.80
2023-02-27T23:10:09.526Z,1.69
2023-02-27T23:15:31.283Z,1.56
2023-02-27T23:20:53.099Z,1.41
2023-02-27T23:26:15.127Z,1.20
2023-02-27T23:31:37.460Z,1.43
2023-02-27T23:36:59.403Z,1.33
2023-02-27T23:42:21.221Z,1.19
2023-02-27T23:47:45.879Z,1.17
2023-02-27T23:53:07.616Z,1.01
2023-02-27T23:58:29.623Z,1.25
